createdAt,value
2022-12-31T00:01:47.250Z,1.88
2022-12-31T00:04:14.983Z,2.17
2022-12-31T00:06:43.987Z,1.70
2022-12-31T00:09:11.940Z,1.90
2022-12-31T00:11:40.888Z,1.95
2022-12-31T00:14:08.861Z,1.70
2022-12-31T00:16:38.696Z,2.30
2022-12-31T00:19:10.781Z,1.52
2022-12-31T00:21:38.465Z,1.50
2022-12-31T00:24:08.349Z,1.52
2022-12-31T00:26:36.681Z,2.20
2022-12-31T00:29:06.023Z,2.42
2022-12-31T00:31:35.788Z,1.92
2022-12-31T00:34:03.709Z,1.27
2022-12-31T00:36:33.474Z,2.03
2022-12-31T00:39:02.717Z,3.85
2022-12-31T00:41:32.159Z,2.20
2022-12-31T00:44:00.550Z,2.92
2022-12-31T00:46:28.434Z,1.23
2022-12-31T00:48:56.576Z,1.40
2022-12-31T00:51:27.294Z,2.08
2022-12-31T00:53:55.647Z,1.50
2022-12-31T00:56:25.304Z,1.40
2022-12-31T00:58:54.675Z,1.50
2022-12-31T01:01:24.466Z,1.65
2022-12-31T01:03:54.585Z,1.55
2022-12-31T01:06:22.685Z,1.42
2022-12-31T01:08:52.107Z,1.33
2022-12-31T01:11:19.816Z,1.30
2022-12-31T01:13:48.890Z,1.48
2022-12-31T01:16:19.722Z,1.40
2022-12-31T01:18:47.406Z,1.30
2022-12-31T01:21:16.007Z,1.73
2022-12-31T01:23:43.871Z,1.55
2022-12-31T01:26:13.070Z,2.30
2022-12-31T01:28:41.233Z,2.13
2022-12-31T01:31:11.455Z,1.60
2022-12-31T01:33:41.296Z,1.55
2022-12-31T01:36:12.287Z,1.42
2022-12-31T01:38:41.001Z,1.33
2022-12-31T01:41:09.407Z,1.20
2022-12-31T01:43:49.733Z,1.50
2022-12-31T01:46:26.748Z,1.20
2022-12-31T01:48:58.892Z,0.90
2022-12-31T01:51:29.937Z,1.00
2022-12-31T01:53:58.911Z,0.95
2022-12-31T01:56:27.172Z,1.40
2022-12-31T01:58:57.439Z,0.80
2022-12-31T02:01:28.995Z,1.00
2022-12-31T02:03:58.509Z,1.67
2022-12-31T02:06:33.407Z,1.27
2022-12-31T02:09:01.790Z,1.00
2022-12-31T02:11:32.919Z,2.20
2022-12-31T02:14:15.691Z,1.20
2022-12-31T02:16:53.485Z,1.27
2022-12-31T02:19:57.122Z,1.30
2022-12-31T02:22:42.482Z,1.67
2022-12-31T02:25:26.483Z,0.90
2022-12-31T02:28:02.966Z,0.90
2022-12-31T02:33:14.737Z,0.80
2022-12-31T02:35:50.569Z,0.82
2022-12-31T02:38:22.443Z,4.43
2022-12-31T02:40:50.568Z,1.40
2022-12-31T02:43:18.221Z,1.13
2022-12-31T02:45:52.100Z,1.40
2022-12-31T02:48:38.067Z,1.17
2022-12-31T02:51:19.175Z,2.17
2022-12-31T02:54:05.380Z,0.90
2022-12-31T02:56:43.158Z,0.90
2022-12-31T02:59:35.307Z,0.77
2022-12-31T03:02:19.498Z,1.73
2022-12-31T03:04:52.291Z,0.88
2022-12-31T03:07:22.606Z,2.40
2022-12-31T03:09:50.877Z,0.93
2022-12-31T03:12:39.038Z,0.70
2022-12-31T03:15:19.845Z,0.82
2022-12-31T03:17:55.671Z,0.80
2022-12-31T03:20:43.726Z,1.25
2022-12-31T03:23:16.104Z,0.68
2022-12-31T03:25:43.549Z,0.70
2022-12-31T03:28:14.527Z,0.80
2022-12-31T03:30:44.713Z,0.75
2022-12-31T03:33:14.711Z,0.60
2022-12-31T03:35:43.948Z,0.68
2022-12-31T03:38:11.951Z,0.50
2022-12-31T03:40:43.755Z,0.50
2022-12-31T03:43:11.930Z,0.50
2022-12-31T03:45:40.335Z,0.55
2022-12-31T03:48:10.632Z,0.50
2022-12-31T03:50:39.715Z,0.40
2022-12-31T03:53:07.434Z,0.47
2022-12-31T03:55:35.153Z,0.30
2022-12-31T03:58:02.855Z,0.90
2022-12-31T04:00:30.688Z,0.50
2022-12-31T04:02:58.435Z,0.30
2022-12-31T04:05:26.133Z,0.50
2022-12-31T04:07:55.816Z,1.17
2022-12-31T04:10:23.668Z,0.50
2022-12-31T04:12:51.392Z,0.50
2022-12-31T04:15:21.743Z,0.60
2022-12-31T04:17:49.636Z,6.13
2022-12-31T04:20:17.999Z,2.70
2022-12-31T04:22:45.663Z,1.23
2022-12-31T04:25:14.827Z,0.95
2022-12-31T04:27:44.021Z,0.80
2022-12-31T04:30:14.003Z,0.60
2022-12-31T04:32:42.177Z,1.10
2022-12-31T04:35:11.511Z,0.85
2022-12-31T04:37:39.608Z,1.17
2022-12-31T04:40:08.816Z,0.70
2022-12-31T04:42:38.181Z,1.58
2022-12-31T04:45:06.814Z,0.50
2022-12-31T04:47:34.508Z,0.50
2022-12-31T04:50:02.224Z,0.80
2022-12-31T04:52:29.852Z,0.90
2022-12-31T04:54:57.533Z,0.90
2022-12-31T04:57:25.302Z,1.00
2022-12-31T04:59:54.356Z,1.02
2022-12-31T05:02:22.152Z,1.20
2022-12-31T05:04:50.086Z,1.77
2022-12-31T05:07:18.690Z,1.55
2022-12-31T05:09:46.396Z,1.20
2022-12-31T05:12:14.055Z,0.70
2022-12-31T05:14:41.922Z,1.02
2022-12-31T05:17:10.951Z,0.90
2022-12-31T05:19:39.549Z,0.70
2022-12-31T05:22:24.585Z,1.75
2022-12-31T05:24:52.334Z,0.80
2022-12-31T05:27:20.007Z,1.05
2022-12-31T05:29:47.651Z,1.10
2022-12-31T05:32:16.874Z,0.80
2022-12-31T05:34:44.647Z,0.93
2022-12-31T05:37:13.000Z,1.88
2022-12-31T05:39:40.664Z,1.10
2022-12-31T05:42:08.420Z,0.90
2022-12-31T05:44:36.080Z,1.02
2022-12-31T05:47:03.782Z,1.20
2022-12-31T05:49:32.799Z,1.25
2022-12-31T05:52:00.483Z,1.77
2022-12-31T05:54:28.276Z,1.95
2022-12-31T05:56:56.080Z,1.70
2022-12-31T05:59:23.751Z,2.35
2022-12-31T06:01:51.568Z,2.10
2022-12-31T06:04:19.260Z,1.65
2022-12-31T06:06:48.416Z,1.60
2022-12-31T06:09:16.576Z,2.35
2022-12-31T06:11:44.349Z,2.05
2022-12-31T06:14:12.411Z,2.58
2022-12-31T06:16:40.396Z,1.83
2022-12-31T06:19:08.798Z,2.47
2022-12-31T06:21:36.472Z,1.75
2022-12-31T06:24:06.209Z,2.45
2022-12-31T06:26:33.952Z,1.20
2022-12-31T06:29:01.683Z,0.73
2022-12-31T06:31:29.425Z,0.70
2022-12-31T06:33:57.109Z,0.85
2022-12-31T06:36:24.819Z,0.80
2022-12-31T06:38:52.497Z,0.70
2022-12-31T06:41:22.039Z,0.77
2022-12-31T06:43:50.089Z,1.55
2022-12-31T06:46:19.352Z,2.15
2022-12-31T06:48:47.190Z,0.63
2022-12-31T06:51:17.716Z,2.40
2022-12-31T06:53:45.737Z,0.88
2022-12-31T06:56:17.656Z,0.50
2022-12-31T06:58:47.893Z,1.27
2022-12-31T07:01:34.782Z,1.33
2022-12-31T07:04:14.634Z,0.70
2022-12-31T07:06:48.827Z,0.70
2022-12-31T07:09:26.336Z,2.25
2022-12-31T07:12:05.251Z,1.05
2022-12-31T07:14:42.292Z,0.90
2022-12-31T07:17:26.982Z,0.75
2022-12-31T07:20:00.467Z,2.25
2022-12-31T07:22:28.746Z,1.65
2022-12-31T07:24:57.060Z,0.98
2022-12-31T07:27:37.358Z,1.80
2022-12-31T07:30:12.671Z,1.88
2022-12-31T07:33:02.498Z,0.75
2022-12-31T07:35:40.156Z,1.48
2022-12-31T07:38:17.789Z,2.80
2022-12-31T07:40:58.213Z,1.75
2022-12-31T07:43:34.103Z,0.60
2022-12-31T07:46:13.083Z,1.30
2022-12-31T07:48:41.331Z,0.75
2022-12-31T07:51:11.607Z,1.10
2022-12-31T07:53:40.429Z,2.15
2022-12-31T07:56:10.367Z,1.13
2022-12-31T07:58:58.315Z,0.70
2022-12-31T08:01:35.858Z,1.10
2022-12-31T08:04:08.370Z,1.65
2022-12-31T08:06:46.667Z,2.15
2022-12-31T08:09:30.665Z,1.73
2022-12-31T08:11:59.662Z,1.95
2022-12-31T08:14:29.117Z,3.40
2022-12-31T08:16:58.940Z,2.35
2022-12-31T08:19:30.438Z,2.80
2022-12-31T08:22:15.359Z,1.55
2022-12-31T08:24:58.387Z,1.00
2022-12-31T08:27:34.490Z,1.98
2022-12-31T08:30:06.468Z,2.90
2022-12-31T08:32:40.914Z,0.63
2022-12-31T08:35:26.107Z,1.85
2022-12-31T08:38:03.379Z,1.92
2022-12-31T08:40:51.438Z,1.45
2022-12-31T08:43:37.513Z,4.03
2022-12-31T08:46:15.359Z,1.52
2022-12-31T08:48:45.099Z,1.63
2022-12-31T08:51:16.553Z,1.00
2022-12-31T08:53:44.762Z,1.85
2022-12-31T08:56:22.555Z,1.20
2022-12-31T08:58:58.599Z,2.78
2022-12-31T09:01:31.387Z,3.03
2022-12-31T09:04:13.086Z,2.13
2022-12-31T09:06:48.111Z,3.35
2022-12-31T09:09:26.219Z,0.98
2022-12-31T09:12:00.582Z,0.57
2022-12-31T09:14:49.383Z,3.05
2022-12-31T09:17:48.507Z,3.42
2022-12-31T09:20:22.011Z,1.65
2022-12-31T09:22:50.250Z,1.40
2022-12-31T09:25:21.420Z,1.90
2022-12-31T09:27:59.007Z,1.55
2022-12-31T09:30:29.901Z,2.10
2022-12-31T09:33:06.156Z,1.27
2022-12-31T09:35:39.475Z,4.60
2022-12-31T09:38:17.673Z,1.83
2022-12-31T09:41:05.778Z,0.90
2022-12-31T09:44:17.059Z,7.97
2022-12-31T09:47:20.033Z,1.15
2022-12-31T09:50:19.528Z,2.25
2022-12-31T09:53:02.392Z,1.60
2022-12-31T09:55:38.332Z,0.60
2022-12-31T09:58:23.661Z,2.10
2022-12-31T10:00:54.464Z,2.58
2022-12-31T10:03:41.801Z,3.47
2022-12-31T10:06:28.560Z,0.60
2022-12-31T10:09:28.417Z,2.13
2022-12-31T10:12:12.800Z,1.20
2022-12-31T10:14:57.816Z,6.10
2022-12-31T10:17:39.752Z,2.05
2022-12-31T10:20:43.311Z,1.25
2022-12-31T10:23:28.299Z,1.42
2022-12-31T10:26:40.516Z,1.42
2022-12-31T10:29:21.685Z,1.67
2022-12-31T10:32:03.168Z,1.23
2022-12-31T10:34:40.584Z,1.45
2022-12-31T10:37:16.013Z,1.75
2022-12-31T10:39:54.937Z,1.63
2022-12-31T10:43:10.180Z,1.23
2022-12-31T10:46:10.322Z,2.45
2022-12-31T10:49:20.237Z,3.08
2022-12-31T10:52:09.640Z,2.63
2022-12-31T10:55:05.597Z,1.65
2022-12-31T10:58:02.042Z,2.08
2022-12-31T11:00:36.339Z,1.33
2022-12-31T11:03:42.643Z,0.82
2022-12-31T11:06:38.771Z,0.90
2022-12-31T11:09:53.557Z,3.83
2022-12-31T11:12:43.488Z,1.30
2022-12-31T11:15:28.740Z,1.80
2022-12-31T11:18:07.219Z,2.67
2022-12-31T11:20:56.785Z,2.28
2022-12-31T11:23:38.545Z,3.33
2022-12-31T11:26:17.535Z,1.75
2022-12-31T11:29:11.936Z,1.00
2022-12-31T11:31:52.217Z,1.60
2022-12-31T11:34:33.904Z,0.80
2022-12-31T11:37:19.436Z,3.15
2022-12-31T11:39:58.288Z,2.60
2022-12-31T11:42:33.826Z,1.27
2022-12-31T11:45:15.576Z,3.70
2022-12-31T11:48:29.699Z,1.95
2022-12-31T11:51:03.145Z,1.38
2022-12-31T11:53:51.002Z,2.58
2022-12-31T11:56:20.214Z,4.22
2022-12-31T11:58:51.389Z,3.28
2022-12-31T12:01:25.817Z,3.05
2022-12-31T12:03:54.023Z,2.28
2022-12-31T12:06:26.818Z,1.25
2022-12-31T12:08:57.744Z,2.78
2022-12-31T12:11:29.548Z,1.20
2022-12-31T12:13:57.819Z,2.45
2022-12-31T12:16:28.535Z,1.33
2022-12-31T12:19:04.699Z,3.97
2022-12-31T12:21:32.740Z,2.22
2022-12-31T12:24:03.048Z,1.70
2022-12-31T12:26:35.732Z,2.05
2022-12-31T12:29:11.063Z,2.13
2022-12-31T12:31:40.455Z,1.90
2022-12-31T12:34:23.616Z,1.67
2022-12-31T12:36:51.441Z,3.42
2022-12-31T12:39:22.441Z,2.78
2022-12-31T12:42:01.599Z,3.65
2022-12-31T12:44:29.301Z,3.67
2022-12-31T12:46:59.511Z,4.22
2022-12-31T12:49:29.824Z,3.03
2022-12-31T12:52:29.624Z,3.58
2022-12-31T12:55:09.281Z,4.72
2022-12-31T12:57:47.734Z,2.40
2022-12-31T13:00:21.105Z,4.65
2022-12-31T13:03:16.850Z,4.13
2022-12-31T13:05:56.103Z,3.90
2022-12-31T13:08:36.613Z,2.10
2022-12-31T13:11:17.629Z,2.45
2022-12-31T13:13:54.803Z,2.88
2022-12-31T13:16:33.608Z,2.80
2022-12-31T13:19:10.798Z,3.38
2022-12-31T13:21:46.702Z,3.90
2022-12-31T13:24:28.643Z,2.72
2022-12-31T13:27:05.416Z,4.40
2022-12-31T13:29:36.158Z,2.78
2022-12-31T13:32:07.543Z,2.63
2022-12-31T13:34:41.278Z,2.40
2022-12-31T13:37:23.540Z,2.83
2022-12-31T13:40:00.322Z,3.00
2022-12-31T13:42:37.016Z,3.17
2022-12-31T13:45:11.244Z,2.40
2022-12-31T13:47:44.983Z,2.78
2022-12-31T13:50:20.736Z,2.15
2022-12-31T13:52:53.948Z,3.00
2022-12-31T13:55:26.281Z,2.63
2022-12-31T13:57:58.955Z,3.35
2022-12-31T14:00:32.183Z,4.10
2022-12-31T14:03:07.874Z,2.75
2022-12-31T14:05:44.535Z,4.88
2022-12-31T14:08:12.299Z,4.18
2022-12-31T14:10:49.868Z,2.33
2022-12-31T14:13:34.839Z,4.60
2022-12-31T14:16:11.944Z,3.88
2022-12-31T14:18:46.846Z,1.80
2022-12-31T14:21:24.223Z,1.65
2022-12-31T14:24:03.261Z,2.47
2022-12-31T14:26:35.790Z,2.63
2022-12-31T14:29:15.375Z,2.80
2022-12-31T14:32:22.887Z,2.47
2022-12-31T14:34:59.508Z,3.70
2022-12-31T14:37:40.654Z,4.40
2022-12-31T14:40:21.085Z,2.42
2022-12-31T14:42:59.366Z,4.68
2022-12-31T14:45:37.204Z,2.30
2022-12-31T14:48:21.564Z,3.72
2022-12-31T14:50:50.150Z,3.88
2022-12-31T14:53:23.681Z,4.20
2022-12-31T14:55:58.720Z,2.80
2022-12-31T14:58:32.913Z,5.00
2022-12-31T15:01:02.008Z,3.00
2022-12-31T15:03:45.048Z,6.22
2022-12-31T15:06:33.454Z,5.03
2022-12-31T15:09:12.769Z,3.13
2022-12-31T15:11:52.483Z,2.72
2022-12-31T15:15:04.990Z,3.95
2022-12-31T15:17:44.710Z,2.63
2022-12-31T15:20:32.963Z,3.78
2022-12-31T15:23:00.838Z,2.80
2022-12-31T15:25:40.344Z,1.80
2022-12-31T15:28:24.529Z,2.38
2022-12-31T15:30:53.975Z,6.15
2022-12-31T15:33:30.634Z,4.35
2022-12-31T15:35:59.203Z,4.68
2022-12-31T15:38:37.390Z,6.50
2022-12-31T15:41:25.723Z,3.35
2022-12-31T15:43:57.862Z,3.40
2022-12-31T15:46:31.439Z,2.40
2022-12-31T15:49:06.782Z,2.72
2022-12-31T15:51:46.196Z,1.65
2022-12-31T15:54:24.138Z,5.07
2022-12-31T15:56:54.652Z,5.05
2022-12-31T15:59:23.859Z,3.92
2022-12-31T16:01:51.775Z,3.67
2022-12-31T16:04:22.057Z,4.53
2022-12-31T16:06:51.580Z,4.38
2022-12-31T16:09:24.317Z,5.70
2022-12-31T16:11:55.847Z,3.03
2022-12-31T16:14:26.071Z,6.30
2022-12-31T16:16:56.721Z,3.67
2022-12-31T16:19:30.308Z,4.68
2022-12-31T16:22:01.787Z,2.88
2022-12-31T16:24:31.182Z,3.78
2022-12-31T16:27:03.885Z,3.53
2022-12-31T16:29:31.972Z,5.20
2022-12-31T16:31:59.637Z,5.07
2022-12-31T16:34:28.843Z,4.53
2022-12-31T16:36:59.008Z,2.95
2022-12-31T16:39:30.079Z,5.57
2022-12-31T16:42:20.911Z,3.33
2022-12-31T16:44:51.778Z,4.85
2022-12-31T16:47:23.041Z,3.92
2022-12-31T16:50:00.437Z,2.70
2022-12-31T16:52:32.975Z,6.53
2022-12-31T16:55:01.155Z,6.13
2022-12-31T16:57:32.332Z,6.55
2022-12-31T17:00:03.736Z,2.38
2022-12-31T17:02:37.881Z,4.88
2022-12-31T17:05:18.237Z,2.33
2022-12-31T17:07:45.937Z,2.97
2022-12-31T17:10:19.298Z,5.30
2022-12-31T17:13:27.440Z,3.38
2022-12-31T17:15:42.092Z,3.80
2022-12-31T17:18:18.385Z,3.60
2022-12-31T17:20:46.207Z,6.45
2022-12-31T17:23:23.846Z,5.20
2022-12-31T17:25:58.799Z,5.32
2022-12-31T17:28:31.819Z,5.25
2022-12-31T17:31:01.909Z,4.50
2022-12-31T17:33:32.307Z,6.47
2022-12-31T17:36:22.968Z,5.40
2022-12-31T17:38:51.321Z,6.35
2022-12-31T17:41:25.955Z,5.47
2022-12-31T17:43:57.654Z,5.50
2022-12-31T17:46:26.552Z,3.15
2022-12-31T17:49:03.554Z,3.70
2022-12-31T17:51:31.445Z,7.93
2022-12-31T17:54:01.275Z,14.10
2022-12-31T17:56:29.110Z,8.55
2022-12-31T17:58:58.223Z,8.23
2022-12-31T18:01:27.389Z,9.07
2022-12-31T18:03:56.725Z,5.78
2022-12-31T18:06:24.463Z,5.82
2022-12-31T18:08:52.185Z,4.57
2022-12-31T18:11:23.228Z,11.30
2022-12-31T18:13:51.623Z,5.55
2022-12-31T18:16:20.765Z,4.47
2022-12-31T18:18:48.499Z,4.35
2022-12-31T18:21:22.572Z,4.25
2022-12-31T18:23:51.880Z,2.88
2022-12-31T18:26:22.386Z,7.28
2022-12-31T18:28:50.506Z,4.05
2022-12-31T18:31:22.320Z,7.80
2022-12-31T18:33:52.011Z,4.22
2022-12-31T18:36:21.221Z,4.13
2022-12-31T18:38:49.507Z,4.68
2022-12-31T18:41:19.532Z,7.60
2022-12-31T18:43:48.101Z,5.47
2022-12-31T18:46:18.214Z,2.95
2022-12-31T18:48:47.430Z,2.88
2022-12-31T18:51:17.707Z,5.85
2022-12-31T18:53:45.656Z,5.80
2022-12-31T18:56:15.197Z,4.95
2022-12-31T18:58:43.385Z,4.10
2022-12-31T19:01:26.104Z,3.33
2022-12-31T19:03:56.595Z,3.50
2022-12-31T19:06:24.421Z,3.38
2022-12-31T19:08:52.433Z,7.03
2022-12-31T19:11:21.077Z,3.20
2022-12-31T19:13:49.402Z,4.55
2022-12-31T19:16:17.964Z,3.20
2022-12-31T19:18:47.326Z,3.63
2022-12-31T19:21:18.797Z,5.15
2022-12-31T19:23:46.965Z,6.97
2022-12-31T19:26:17.251Z,5.38
2022-12-31T19:28:45.698Z,4.90
2022-12-31T19:31:13.795Z,5.55
2022-12-31T19:33:42.224Z,6.47
2022-12-31T19:36:15.945Z,7.03
2022-12-31T19:38:45.901Z,6.93
2022-12-31T19:41:16.969Z,5.85
2022-12-31T19:43:44.737Z,4.72
2022-12-31T19:46:14.493Z,5.03
2022-12-31T19:48:42.357Z,12.77
2022-12-31T19:51:12.386Z,8.20
2022-12-31T19:53:40.207Z,3.60
2022-12-31T19:56:13.419Z,7.78
2022-12-31T19:58:41.192Z,4.30
2022-12-31T20:01:09.371Z,4.13
2022-12-31T20:03:37.210Z,3.63
2022-12-31T20:06:06.974Z,6.25
2022-12-31T20:08:35.105Z,6.40
2022-12-31T20:11:12.372Z,6.72
2022-12-31T20:13:41.051Z,6.43
2022-12-31T20:16:09.812Z,3.70
2022-12-31T20:18:38.244Z,6.05
2022-12-31T20:21:09.744Z,8.73
2022-12-31T20:23:37.476Z,9.02
2022-12-31T20:26:05.356Z,5.95
2022-12-31T20:28:34.408Z,4.78
2022-12-31T20:31:06.208Z,7.43
2022-12-31T20:33:34.699Z,6.68
2022-12-31T20:36:02.989Z,8.38
2022-12-31T20:38:30.750Z,5.80
2022-12-31T20:41:04.020Z,8.27
2022-12-31T20:43:32.437Z,8.00
2022-12-31T20:46:10.967Z,6.80
2022-12-31T20:48:42.464Z,7.75
2022-12-31T20:51:10.335Z,8.55
2022-12-31T20:53:38.085Z,6.05
2022-12-31T20:56:06.665Z,5.72
2022-12-31T20:58:34.555Z,5.63
2022-12-31T21:01:07.027Z,10.43
2022-12-31T21:06:28.892Z,9.75
2022-12-31T21:08:57.331Z,10.30
2022-12-31T21:11:43.183Z,5.20
2022-12-31T21:14:11.054Z,8.18
2022-12-31T21:16:40.182Z,6.25
2022-12-31T21:19:07.877Z,7.80
2022-12-31T21:21:35.601Z,9.52
2022-12-31T21:24:03.612Z,9.18
2022-12-31T21:26:31.514Z,7.65
2022-12-31T21:28:59.477Z,4.95
2022-12-31T21:31:27.423Z,5.85
2022-12-31T21:33:56.611Z,9.48
2022-12-31T21:36:24.431Z,14.27
2022-12-31T21:38:52.195Z,8.80
2022-12-31T21:41:37.222Z,12.55
2022-12-31T21:44:04.934Z,7.30
2022-12-31T21:46:32.746Z,10.15
2022-12-31T21:49:02.021Z,9.75
2022-12-31T21:51:30.523Z,9.18
2022-12-31T21:53:58.962Z,11.38
2022-12-31T21:56:25.751Z,5.65
2022-12-31T21:59:13.662Z,8.77
2022-12-31T22:01:58.965Z,9.48
2022-12-31T22:05:00.928Z,6.25
2022-12-31T22:07:16.648Z,7.22
2022-12-31T22:09:44.486Z,5.78
2022-12-31T22:12:12.203Z,9.70
2022-12-31T22:14:39.956Z,10.05
2022-12-31T22:17:27.596Z,10.68
2022-12-31T22:22:44.351Z,13.32
2022-12-31T22:25:12.152Z,10.95
2022-12-31T22:27:39.918Z,7.43
2022-12-31T22:30:08.957Z,7.38
2022-12-31T22:32:36.804Z,10.43
2022-12-31T22:35:07.699Z,14.27
2022-12-31T22:37:56.148Z,8.32
2022-12-31T22:40:23.261Z,7.70
2022-12-31T22:42:51.011Z,15.60
2022-12-31T22:45:18.812Z,7.47
2022-12-31T22:47:46.506Z,9.30
2022-12-31T22:50:15.728Z,7.75
2022-12-31T22:52:43.390Z,8.68
2022-12-31T22:55:11.227Z,4.35
2022-12-31T22:57:38.887Z,11.73
2022-12-31T23:00:12.673Z,12.50
2022-12-31T23:02:42.310Z,13.02
2022-12-31T23:05:16.238Z,31.77
2022-12-31T23:07:45.584Z,23.80
2022-12-31T23:10:31.752Z,30.25
2022-12-31T23:16:04.768Z,38.65
2022-12-31T23:18:50.033Z,36.92
2022-12-31T23:21:35.381Z,33.13
2022-12-31T23:24:04.715Z,27.50
2022-12-31T23:26:32.426Z,19.13
2022-12-31T23:29:00.185Z,27.02
2022-12-31T23:31:28.910Z,32.97
2022-12-31T23:33:56.883Z,26.17
2022-12-31T23:36:24.779Z,30.85
2022-12-31T23:38:56.247Z,20.13
2022-12-31T23:41:25.482Z,24.83
2022-12-31T23:43:53.182Z,18.05
2022-12-31T23:46:20.942Z,16.77
2022-12-31T23:48:48.688Z,14.93
2022-12-31T23:51:16.470Z,12.45
2022-12-31T23:53:44.196Z,15.43
2022-12-31T23:56:23.078Z,14.43
2022-12-31T23:58:56.089Z,12.18
